Startpagina
METAR-TAF:

METAR-TAF

Vliegvelden :

Wanaham

Lifou, Nieuw-Caledonië

breedte: 20-46S, lengte: 167-14E, hoogte: 28 m

METAR: ontbreekt

Tijdstip: 23:41 (12:41 UTC)

Verwachting

Dit bericht is 6 minuten geleden gemaakt, om 12:35 UTC
Verwachting geldig van 21 om 12 UTC tot 22 om 12 UTC
Wind 15 kt uit het oostnoordoosten
Zicht 10 km of meer
Gebroken wolken op 1600 ft
Gebroken wolken op 2500 ft
Tijdelijke
van 21 om 12 UTC tot 21 om 18 UTC
Wind 18 kt uit het oostnoordoosten met uitschieters tot 30 kt
Zicht: 3000 m
Gebroken wolken op 900 ft
Verspreide wolken op 1800 ft, Cumulonimbus.
regenbuien
Wijzigt naar
van 21 om 22 UTC tot 21 om 24 UTC
Wind 6 kt uit het noorden
Weinig wolken op 1500 ft
Verspreide wolken op 2500 ft
Tijdelijke
van 21 om 20 UTC tot 22 om 06 UTC
Zicht: 4000 m
Weinig wolken op 1800 ft, Stapelwolken.
regenbuien

TAF: NWWL 211235Z 2112/2212 06015KT 9999 BKN016 BKN025 TEMPO 2112/2118 06018G30KT 3000 SHRA BKN009 SCT018CB BECMG 2122/2124 35006KT FEW015 SCT025 TEMPO 2120/2206 4000 SHRA FEW018TCU

Waarnemingen en weersverwachtingen van meer dan 4000 vliegvelden (METAR en TAF).

De beschikbare stations zijn de gele en rode punten op de kaart.

Ga met uw muis naar het station om de naam te zien.

Klik dan om waarnemingen en weersverwachtingen te zien.

kaart wijzigen: klik op de groene knoppen met een zwart kruis om in te zoomen, op de groene knop met een streepje om uit te zoomen of op de groene pijlen voor aangrenzende kaarten.


METAR-TAF: